Impacts TAF Board INFO
FOR SITUATIONAL AWARENESS. NOT TO BE USED FOR FLIGHT PLANNING PURPOSES.
IDs:

KBOS - Boston/Logan Intl, MA, US

Issued at 0305 UTC 23 Sep 2017
Updated at 0401 UTC 23 Sep 2017
Potential Impact None Slight Moderate High
Time0354Z 23/05Z 23/06Z 23/07Z 23/08Z 23/09Z 23/10Z 23/11Z 23/12Z 23/13Z 23/14Z 23/15Z 23/16Z 23/17Z>>
Type OBS PRVL PRVL PRVL PRVL PRVL PRVL PRVL PRVL PRVL PRVL PRVL PRVL PRVL
VIS 5 3 3 3 >6 >6 >6 >6 >6 >6 >6 >6 >6 >6
CIG 6 6 6 6 8 8 8 8 3 3 8 8 8 8
Cover OVC OVC OVC OVC OVC OVC OVC OVC BKN BKN BKN BKN BKN BKN
FltCat IFR IFR IFR IFR IFR IFR IFR IFR LIFR LIFR IFR IFR IFR IFR
WX -DZ BR -DZ BR -DZ BR -DZ BR -- -- -- -- -- -- -- -- -- --
WDir 10 20 20 20 10 10 10 10 20 20 20 20 20 20
WSpd 16 15 15 15 12 12 12 12 10 10 11 11 11 11
WGst -- 24 24 24 25 25 25 25 22 22 -- -- -- --

Raw TAF
KBOS 230305Z 2303/2406 02015G24KT 3SM -DZ BR OVC006
  FM230800 01012G25KT P6SM OVC008
  FM231200 02010G22KT P6SM BKN003
  FM231400 02011KT P6SM BKN008
  FM231800 03008KT P6SM SCT045
  FM240200 02005KT P6SM SCT003


Raw METAR
KBOS 230354Z 01016KT 5SM -DZ BR OVC006 17/16 A3000 RMK AO2 SLP157 P0000 T01670161
KBOS 230321Z 02017KT 3SM -DZ BR OVC005 17/16 A3000 RMK AO2 P0000 T01670161
KBOS 230306Z 01016G22KT 2 1/2SM -DZ BR OVC006 17/17 A3000 RMK AO2 P0000 T01670167
KBOS 230254Z 02015G24KT 3SM -DZ BR OVC006 17/17 A3000 RMK AO2 PK WND 01027/0238 SLP159 P0000 60000 T01670167 51002
KBOS 230154Z 02020G25KT 3SM -DZ BR OVC006 17/16 A3000 RMK AO2 SLP158 P0000 T01670161

METAR Board
Radar Display
Forecast Discussion

FOR SITUATIONAL AWARENESS. NOT TO BE USED FOR FLIGHT PLANNING PURPOSES.